Portada
METAR-TAF:

METAR-TAF

Aeropuertos :

Kermanshah, Irán

latitud: 34-16N, longitud: 047-07E, altitud: 1320 m

Observación

El informe se hizo hace 44 minutos, a las 03:30 UTC
Viento calma
Temperatura 21°C
Humedad 23%
Presión 1015 hPa
Visibilidad 10 km o más
sin nubes por debajo de 1500 m y sin presencia de cumulonimbus.

METAR: OICC 250330Z 00000KT CAVOK 21/M01 Q1015 A2997

Hora: 08:44 (04:14 UTC)

Pronóstico

El informe se hizo hace 1 hora y 44 minutos, a las 02:30 UTC
Pronóstico válido del 25 a las 03 UTC al 25 a las 12 UTC
Viento 10 kt del oeste
Visibilidad: 7000 m
Temporalmente
del 25 a las 06 UTC al 25 a las 12 UTC
Viento 18 kt del oeste-noroeste
Escasas nubes a una altura de 3500 ft, Cumulonimbus.
Nubes dispersas a una altura de 4000 ft
Nubes dispersas a una altura de 10000 ft

TAF: OICC 250230Z 2503/2512 27010KT 7000 NSC TEMPO 2506/2512 30018KT FEW035CB SCT040 SCT100

Observaciones y pronósticos meteorológicos de más de 4000 aeropuertos (mensajes METAR y TAF).

Los puntos amarillos y rojos representan las estaciones disponibles.

Ponga el ratón en el punto deseado para ver el nombre de la estación.

Haga clic para ver las observaciones y los pronósticos meteorológicos.

Para cambiar el mapa : haga clic en los botones verdes con una cruz de color negro para hacer un zoom, en el botón verde con un guión para alejar o en las flechas verdes para mapas adyacentes.


METAR-TAF: